sensor_id;sensor_type;location;lat;lon;timestamp;P1;durP1;ratioP1;P2;durP2;ratioP2
4051;SDS011;2040;50.924;11.604;2022-08-03T00:02:23;2.27;;;1.90;;
4051;SDS011;2040;50.924;11.604;2022-08-03T00:04:48;5.23;;;2.17;;
4051;SDS011;2040;50.924;11.604;2022-08-03T00:07:14;2.73;;;2.10;;
4051;SDS011;2040;50.924;11.604;2022-08-03T00:09:40;2.90;;;2.60;;
4051;SDS011;2040;50.924;11.604;2022-08-03T00:12:06;6.03;;;2.03;;
4051;SDS011;2040;50.924;11.604;2022-08-03T00:14:31;2.53;;;1.80;;
4051;SDS011;2040;50.924;11.604;2022-08-03T00:16:57;2.10;;;1.90;;
4051;SDS011;2040;50.924;11.604;2022-08-03T00:19:23;2.30;;;1.87;;
4051;SDS011;2040;50.924;11.604;2022-08-03T00:21:48;3.23;;;2.50;;
4051;SDS011;2040;50.924;11.604;2022-08-03T00:24:14;4.27;;;2.30;;
4051;SDS011;2040;50.924;11.604;2022-08-03T00:26:40;2.67;;;1.90;;
4051;SDS011;2040;50.924;11.604;2022-08-03T00:29:05;6.83;;;2.03;;
4051;SDS011;2040;50.924;11.604;2022-08-03T00:31:31;2.27;;;2.07;;
4051;SDS011;2040;50.924;11.604;2022-08-03T00:33:56;4.57;;;2.27;;
4051;SDS011;2040;50.924;11.604;2022-08-03T00:36:22;3.00;;;1.93;;
4051;SDS011;2040;50.924;11.604;2022-08-03T00:38:48;2.00;;;1.80;;
4051;SDS011;2040;50.924;11.604;2022-08-03T00:41:13;2.20;;;1.80;;
4051;SDS011;2040;50.924;11.604;2022-08-03T00:43:39;5.10;;;2.10;;
4051;SDS011;2040;50.924;11.604;2022-08-03T00:46:04;2.07;;;1.53;;
4051;SDS011;2040;50.924;11.604;2022-08-03T00:48:30;4.07;;;2.30;;
4051;SDS011;2040;50.924;11.604;2022-08-03T00:50:56;2.57;;;1.97;;
4051;SDS011;2040;50.924;11.604;2022-08-03T00:53:22;1.90;;;1.70;;
4051;SDS011;2040;50.924;11.604;2022-08-03T00:55:49;12.87;;;2.10;;
4051;SDS011;2040;50.924;11.604;2022-08-03T00:58:15;3.53;;;2.10;;
4051;SDS011;2040;50.924;11.604;2022-08-03T01:00:40;4.73;;;2.10;;
4051;SDS011;2040;50.924;11.604;2022-08-03T01:03:07;2.30;;;1.90;;
4051;SDS011;2040;50.924;11.604;2022-08-03T01:05:37;5.17;;;1.87;;
4051;SDS011;2040;50.924;11.604;2022-08-03T01:08:14;4.07;;;2.10;;
4051;SDS011;2040;50.924;11.604;2022-08-03T01:10:53;3.27;;;2.17;;
4051;SDS011;2040;50.924;11.604;2022-08-03T01:13:36;2.93;;;2.00;;
4051;SDS011;2040;50.924;11.604;2022-08-03T01:16:19;2.33;;;1.60;;
4051;SDS011;2040;50.924;11.604;2022-08-03T01:19:19;3.90;;;1.80;;
4051;SDS011;2040;50.924;11.604;2022-08-03T01:30:30;1.93;;;1.67;;
4051;SDS011;2040;50.924;11.604;2022-08-03T01:33:11;3.20;;;2.07;;
4051;SDS011;2040;50.924;11.604;2022-08-03T01:35:46;2.90;;;2.03;;
4051;SDS011;2040;50.924;11.604;2022-08-03T01:38:22;4.53;;;1.87;;
4051;SDS011;2040;50.924;11.604;2022-08-03T01:40:54;3.67;;;2.43;;
4051;SDS011;2040;50.924;11.604;2022-08-03T01:43:24;1.83;;;1.73;;
4051;SDS011;2040;50.924;11.604;2022-08-03T01:45:54;3.60;;;2.30;;
4051;SDS011;2040;50.924;11.604;2022-08-03T01:48:21;2.47;;;1.73;;
4051;SDS011;2040;50.924;11.604;2022-08-03T01:50:48;2.27;;;1.63;;
4051;SDS011;2040;50.924;11.604;2022-08-03T01:53:15;3.77;;;2.30;;
4051;SDS011;2040;50.924;11.604;2022-08-03T01:55:42;2.67;;;2.30;;
4051;SDS011;2040;50.924;11.604;2022-08-03T01:58:10;3.27;;;2.60;;
4051;SDS011;2040;50.924;11.604;2022-08-03T02:00:38;2.80;;;1.97;;
4051;SDS011;2040;50.924;11.604;2022-08-03T02:03:05;2.47;;;2.23;;
4051;SDS011;2040;50.924;11.604;2022-08-03T02:05:32;3.10;;;2.40;;
4051;SDS011;2040;50.924;11.604;2022-08-03T02:07:58;2.80;;;2.50;;
4051;SDS011;2040;50.924;11.604;2022-08-03T02:10:27;2.50;;;1.93;;
4051;SDS011;2040;50.924;11.604;2022-08-03T02:12:56;2.93;;;2.47;;
4051;SDS011;2040;50.924;11.604;2022-08-03T02:15:25;6.40;;;2.70;;
4051;SDS011;2040;50.924;11.604;2022-08-03T02:17:52;4.40;;;2.27;;
4051;SDS011;2040;50.924;11.604;2022-08-03T02:20:20;2.57;;;2.37;;
4051;SDS011;2040;50.924;11.604;2022-08-03T02:22:46;2.67;;;2.07;;
4051;SDS011;2040;50.924;11.604;2022-08-03T02:25:12;2.90;;;2.07;;
4051;SDS011;2040;50.924;11.604;2022-08-03T02:27:42;3.77;;;2.80;;
4051;SDS011;2040;50.924;11.604;2022-08-03T02:30:33;2.57;;;2.10;;
4051;SDS011;2040;50.924;11.604;2022-08-03T02:33:03;4.10;;;2.50;;
4051;SDS011;2040;50.924;11.604;2022-08-03T02:35:31;3.10;;;2.50;;
4051;SDS011;2040;50.924;11.604;2022-08-03T02:38:02;3.37;;;2.70;;
4051;SDS011;2040;50.924;11.604;2022-08-03T02:40:31;4.40;;;2.83;;
4051;SDS011;2040;50.924;11.604;2022-08-03T02:42:58;3.80;;;2.07;;
4051;SDS011;2040;50.924;11.604;2022-08-03T02:45:27;5.43;;;2.60;;
4051;SDS011;2040;50.924;11.604;2022-08-03T02:47:56;2.47;;;2.27;;
4051;SDS011;2040;50.924;11.604;2022-08-03T02:50:24;3.93;;;3.03;;
4051;SDS011;2040;50.924;11.604;2022-08-03T02:52:52;4.60;;;2.83;;
4051;SDS011;2040;50.924;11.604;2022-08-03T02:55:20;3.77;;;2.63;;
4051;SDS011;2040;50.924;11.604;2022-08-03T02:57:47;4.73;;;2.23;;
4051;SDS011;2040;50.924;11.604;2022-08-03T03:00:14;3.00;;;2.60;;
4051;SDS011;2040;50.924;11.604;2022-08-03T03:02:40;2.50;;;2.30;;
4051;SDS011;2040;50.924;11.604;2022-08-03T03:05:06;8.00;;;2.80;;
4051;SDS011;2040;50.924;11.604;2022-08-03T03:07:34;3.07;;;2.17;;
4051;SDS011;2040;50.924;11.604;2022-08-03T03:10:02;3.50;;;2.53;;
4051;SDS011;2040;50.924;11.604;2022-08-03T03:12:28;4.13;;;3.30;;
4051;SDS011;2040;50.924;11.604;2022-08-03T03:14:55;8.73;;;3.17;;
4051;SDS011;2040;50.924;11.604;2022-08-03T03:17:21;8.63;;;3.20;;
4051;SDS011;2040;50.924;11.604;2022-08-03T03:19:48;3.23;;;2.50;;
4051;SDS011;2040;50.924;11.604;2022-08-03T03:22:15;4.37;;;3.33;;
4051;SDS011;2040;50.924;11.604;2022-08-03T03:24:41;3.80;;;2.87;;
4051;SDS011;2040;50.924;11.604;2022-08-03T03:27:08;3.43;;;2.97;;
4051;SDS011;2040;50.924;11.604;2022-08-03T03:29:34;3.13;;;2.77;;
4051;SDS011;2040;50.924;11.604;2022-08-03T03:32:00;6.50;;;3.20;;
4051;SDS011;2040;50.924;11.604;2022-08-03T03:34:27;6.23;;;3.30;;
4051;SDS011;2040;50.924;11.604;2022-08-03T03:36:54;3.23;;;2.90;;
4051;SDS011;2040;50.924;11.604;2022-08-03T03:39:19;6.23;;;3.20;;
4051;SDS011;2040;50.924;11.604;2022-08-03T03:41:45;2.83;;;2.40;;
4051;SDS011;2040;50.924;11.604;2022-08-03T03:44:11;5.10;;;3.03;;
4051;SDS011;2040;50.924;11.604;2022-08-03T03:46:38;3.03;;;2.53;;
4051;SDS011;2040;50.924;11.604;2022-08-03T03:49:07;3.50;;;2.90;;
4051;SDS011;2040;50.924;11.604;2022-08-03T03:51:33;2.57;;;2.37;;
4051;SDS011;2040;50.924;11.604;2022-08-03T03:53:59;3.53;;;2.80;;
4051;SDS011;2040;50.924;11.604;2022-08-03T03:56:26;3.13;;;2.83;;
4051;SDS011;2040;50.924;11.604;2022-08-03T03:58:52;4.83;;;3.17;;
4051;SDS011;2040;50.924;11.604;2022-08-03T04:01:18;3.20;;;2.83;;
4051;SDS011;2040;50.924;11.604;2022-08-03T04:03:44;3.60;;;3.23;;
4051;SDS011;2040;50.924;11.604;2022-08-03T04:06:11;3.60;;;2.70;;
4051;SDS011;2040;50.924;11.604;2022-08-03T04:08:55;5.13;;;3.17;;
4051;SDS011;2040;50.924;11.604;2022-08-03T04:11:45;3.37;;;2.80;;
4051;SDS011;2040;50.924;11.604;2022-08-03T04:14:17;2.93;;;2.63;;
4051;SDS011;2040;50.924;11.604;2022-08-03T04:16:47;4.30;;;3.03;;
4051;SDS011;2040;50.924;11.604;2022-08-03T04:19:20;3.07;;;2.67;;
4051;SDS011;2040;50.924;11.604;2022-08-03T04:21:54;5.10;;;3.10;;
4051;SDS011;2040;50.924;11.604;2022-08-03T04:24:25;4.83;;;2.67;;
4051;SDS011;2040;50.924;11.604;2022-08-03T04:26:54;5.80;;;2.90;;
4051;SDS011;2040;50.924;11.604;2022-08-03T04:29:21;3.37;;;2.60;;
4051;SDS011;2040;50.924;11.604;2022-08-03T04:31:49;6.93;;;3.10;;
4051;SDS011;2040;50.924;11.604;2022-08-03T04:34:17;3.47;;;2.97;;
4051;SDS011;2040;50.924;11.604;2022-08-03T04:36:44;4.80;;;3.47;;
4051;SDS011;2040;50.924;11.604;2022-08-03T04:39:15;4.63;;;3.27;;
4051;SDS011;2040;50.924;11.604;2022-08-03T04:41:47;5.83;;;3.77;;
4051;SDS011;2040;50.924;11.604;2022-08-03T04:44:15;5.90;;;3.40;;
4051;SDS011;2040;50.924;11.604;2022-08-03T04:46:42;6.30;;;3.40;;
4051;SDS011;2040;50.924;11.604;2022-08-03T04:49:08;6.00;;;3.27;;
4051;SDS011;2040;50.924;11.604;2022-08-03T04:51:35;4.73;;;3.00;;
4051;SDS011;2040;50.924;11.604;2022-08-03T04:54:03;4.00;;;3.20;;
4051;SDS011;2040;50.924;11.604;2022-08-03T04:56:28;5.50;;;3.30;;
4051;SDS011;2040;50.924;11.604;2022-08-03T04:58:54;4.47;;;3.10;;
4051;SDS011;2040;50.924;11.604;2022-08-03T05:01:20;6.67;;;3.40;;
4051;SDS011;2040;50.924;11.604;2022-08-03T05:03:46;5.10;;;3.23;;
4051;SDS011;2040;50.924;11.604;2022-08-03T05:06:12;5.57;;;3.00;;
4051;SDS011;2040;50.924;11.604;2022-08-03T05:08:38;4.97;;;3.20;;
4051;SDS011;2040;50.924;11.604;2022-08-03T05:11:03;3.90;;;3.03;;
4051;SDS011;2040;50.924;11.604;2022-08-03T05:13:29;7.47;;;3.80;;
4051;SDS011;2040;50.924;11.604;2022-08-03T05:15:55;4.43;;;3.60;;
4051;SDS011;2040;50.924;11.604;2022-08-03T05:18:20;8.10;;;3.40;;
4051;SDS011;2040;50.924;11.604;2022-08-03T05:20:46;5.87;;;3.30;;
4051;SDS011;2040;50.924;11.604;2022-08-03T05:23:11;5.70;;;3.60;;
4051;SDS011;2040;50.924;11.604;2022-08-03T05:25:37;3.67;;;3.00;;
4051;SDS011;2040;50.924;11.604;2022-08-03T05:28:03;8.43;;;3.10;;
4051;SDS011;2040;50.924;11.604;2022-08-03T05:30:28;4.93;;;3.43;;
4051;SDS011;2040;50.924;11.604;2022-08-03T05:32:54;8.23;;;3.20;;
4051;SDS011;2040;50.924;11.604;2022-08-03T05:35:20;5.93;;;3.30;;
4051;SDS011;2040;50.924;11.604;2022-08-03T05:37:45;6.03;;;3.50;;
4051;SDS011;2040;50.924;11.604;2022-08-03T05:40:11;3.70;;;3.10;;
4051;SDS011;2040;50.924;11.604;2022-08-03T05:42:37;4.37;;;2.87;;
4051;SDS011;2040;50.924;11.604;2022-08-03T05:45:03;3.37;;;2.77;;
4051;SDS011;2040;50.924;11.604;2022-08-03T05:47:38;5.77;;;3.40;;
4051;SDS011;2040;50.924;11.604;2022-08-03T05:50:08;7.50;;;4.03;;
4051;SDS011;2040;50.924;11.604;2022-08-03T05:52:38;9.27;;;3.70;;
4051;SDS011;2040;50.924;11.604;2022-08-03T05:55:07;7.53;;;3.37;;
4051;SDS011;2040;50.924;11.604;2022-08-03T05:57:34;3.83;;;3.33;;
4051;SDS011;2040;50.924;11.604;2022-08-03T06:00:03;8.57;;;3.60;;
4051;SDS011;2040;50.924;11.604;2022-08-03T06:02:31;6.20;;;3.87;;
4051;SDS011;2040;50.924;11.604;2022-08-03T06:04:57;4.87;;;3.20;;
4051;SDS011;2040;50.924;11.604;2022-08-03T06:07:22;6.90;;;3.10;;
4051;SDS011;2040;50.924;11.604;2022-08-03T06:09:48;5.17;;;2.97;;
4051;SDS011;2040;50.924;11.604;2022-08-03T06:12:13;5.23;;;3.63;;
4051;SDS011;2040;50.924;11.604;2022-08-03T06:14:39;3.40;;;3.10;;
4051;SDS011;2040;50.924;11.604;2022-08-03T06:17:05;3.60;;;2.87;;
4051;SDS011;2040;50.924;11.604;2022-08-03T06:19:30;4.53;;;2.93;;
4051;SDS011;2040;50.924;11.604;2022-08-03T06:21:56;5.00;;;3.80;;
4051;SDS011;2040;50.924;11.604;2022-08-03T06:24:22;5.97;;;3.43;;
4051;SDS011;2040;50.924;11.604;2022-08-03T06:26:47;14.53;;;3.30;;
4051;SDS011;2040;50.924;11.604;2022-08-03T06:29:13;6.53;;;2.93;;
4051;SDS011;2040;50.924;11.604;2022-08-03T06:31:38;7.97;;;3.00;;
4051;SDS011;2040;50.924;11.604;2022-08-03T06:34:04;3.87;;;2.83;;
4051;SDS011;2040;50.924;11.604;2022-08-03T06:36:30;5.27;;;3.00;;
4051;SDS011;2040;50.924;11.604;2022-08-03T06:38:58;4.87;;;3.10;;
4051;SDS011;2040;50.924;11.604;2022-08-03T06:41:24;5.20;;;3.27;;
4051;SDS011;2040;50.924;11.604;2022-08-03T06:43:51;6.33;;;3.90;;
4051;SDS011;2040;50.924;11.604;2022-08-03T06:46:17;5.07;;;2.73;;
4051;SDS011;2040;50.924;11.604;2022-08-03T06:48:42;6.87;;;3.23;;
4051;SDS011;2040;50.924;11.604;2022-08-03T06:51:08;5.70;;;2.90;;
4051;SDS011;2040;50.924;11.604;2022-08-03T06:53:34;10.13;;;3.30;;
4051;SDS011;2040;50.924;11.604;2022-08-03T06:55:59;7.13;;;3.03;;
4051;SDS011;2040;50.924;11.604;2022-08-03T06:58:25;4.50;;;2.70;;
4051;SDS011;2040;50.924;11.604;2022-08-03T07:00:51;3.83;;;2.90;;
4051;SDS011;2040;50.924;11.604;2022-08-03T07:03:17;6.60;;;2.83;;
4051;SDS011;2040;50.924;11.604;2022-08-03T07:05:42;5.97;;;3.10;;
4051;SDS011;2040;50.924;11.604;2022-08-03T07:08:10;6.80;;;2.60;;
4051;SDS011;2040;50.924;11.604;2022-08-03T07:10:36;4.40;;;2.70;;
4051;SDS011;2040;50.924;11.604;2022-08-03T07:13:02;5.03;;;2.93;;
4051;SDS011;2040;50.924;11.604;2022-08-03T07:15:28;5.00;;;3.00;;
4051;SDS011;2040;50.924;11.604;2022-08-03T07:17:54;3.40;;;3.10;;
4051;SDS011;2040;50.924;11.604;2022-08-03T07:20:20;6.53;;;3.10;;
4051;SDS011;2040;50.924;11.604;2022-08-03T07:22:46;5.33;;;2.50;;
4051;SDS011;2040;50.924;11.604;2022-08-03T07:25:11;5.13;;;3.20;;
4051;SDS011;2040;50.924;11.604;2022-08-03T07:27:37;7.23;;;2.80;;
4051;SDS011;2040;50.924;11.604;2022-08-03T07:30:04;3.50;;;2.97;;
4051;SDS011;2040;50.924;11.604;2022-08-03T07:32:31;2.50;;;2.30;;
4051;SDS011;2040;50.924;11.604;2022-08-03T07:34:57;3.80;;;2.80;;
4051;SDS011;2040;50.924;11.604;2022-08-03T07:37:22;5.40;;;2.57;;
4051;SDS011;2040;50.924;11.604;2022-08-03T07:39:48;5.17;;;3.03;;
4051;SDS011;2040;50.924;11.604;2022-08-03T07:42:14;12.10;;;2.87;;
4051;SDS011;2040;50.924;11.604;2022-08-03T07:44:39;3.93;;;2.57;;
4051;SDS011;2040;50.924;11.604;2022-08-03T07:47:05;9.73;;;3.23;;
4051;SDS011;2040;50.924;11.604;2022-08-03T07:49:30;3.20;;;2.60;;
4051;SDS011;2040;50.924;11.604;2022-08-03T07:51:56;6.97;;;2.67;;
4051;SDS011;2040;50.924;11.604;2022-08-03T07:54:40;3.90;;;2.30;;
4051;SDS011;2040;50.924;11.604;2022-08-03T07:57:06;3.43;;;2.23;;
4051;SDS011;2040;50.924;11.604;2022-08-03T07:59:32;10.80;;;2.90;;
4051;SDS011;2040;50.924;11.604;2022-08-03T08:01:59;6.07;;;2.87;;
4051;SDS011;2040;50.924;11.604;2022-08-03T08:04:24;8.00;;;3.00;;
4051;SDS011;2040;50.924;11.604;2022-08-03T08:06:50;6.83;;;2.90;;
4051;SDS011;2040;50.924;11.604;2022-08-03T08:09:16;7.40;;;2.60;;
4051;SDS011;2040;50.924;11.604;2022-08-03T08:11:41;3.80;;;2.63;;
4051;SDS011;2040;50.924;11.604;2022-08-03T08:14:07;3.90;;;2.60;;
4051;SDS011;2040;50.924;11.604;2022-08-03T08:16:33;6.03;;;3.00;;
4051;SDS011;2040;50.924;11.604;2022-08-03T08:18:59;4.30;;;2.23;;
4051;SDS011;2040;50.924;11.604;2022-08-03T08:21:25;5.50;;;2.47;;
4051;SDS011;2040;50.924;11.604;2022-08-03T08:23:51;4.13;;;2.70;;
4051;SDS011;2040;50.924;11.604;2022-08-03T08:26:17;16.37;;;2.30;;
4051;SDS011;2040;50.924;11.604;2022-08-03T08:28:42;3.17;;;2.60;;
4051;SDS011;2040;50.924;11.604;2022-08-03T08:31:08;3.23;;;2.90;;
4051;SDS011;2040;50.924;11.604;2022-08-03T08:33:33;3.87;;;2.70;;
4051;SDS011;2040;50.924;11.604;2022-08-03T08:36:00;2.00;;;1.83;;
4051;SDS011;2040;50.924;11.604;2022-08-03T08:38:25;3.47;;;1.63;;
4051;SDS011;2040;50.924;11.604;2022-08-03T08:40:53;5.13;;;2.00;;
4051;SDS011;2040;50.924;11.604;2022-08-03T08:43:19;4.03;;;1.97;;
4051;SDS011;2040;50.924;11.604;2022-08-03T08:45:45;4.13;;;2.40;;
4051;SDS011;2040;50.924;11.604;2022-08-03T08:48:17;5.53;;;2.27;;
4051;SDS011;2040;50.924;11.604;2022-08-03T08:50:48;3.90;;;1.77;;
4051;SDS011;2040;50.924;11.604;2022-08-03T08:53:17;2.60;;;2.07;;
4051;SDS011;2040;50.924;11.604;2022-08-03T08:55:45;7.97;;;2.27;;
4051;SDS011;2040;50.924;11.604;2022-08-03T08:58:11;2.10;;;1.90;;
4051;SDS011;2040;50.924;11.604;2022-08-03T09:00:38;2.60;;;1.70;;
4051;SDS011;2040;50.924;11.604;2022-08-03T09:03:03;2.57;;;1.70;;
4051;SDS011;2040;50.924;11.604;2022-08-03T09:05:29;3.37;;;1.63;;
4051;SDS011;2040;50.924;11.604;2022-08-03T09:07:56;1.93;;;1.50;;
4051;SDS011;2040;50.924;11.604;2022-08-03T09:10:22;1.97;;;1.77;;
4051;SDS011;2040;50.924;11.604;2022-08-03T09:12:49;3.50;;;1.70;;
4051;SDS011;2040;50.924;11.604;2022-08-03T09:15:16;3.00;;;1.70;;
4051;SDS011;2040;50.924;11.604;2022-08-03T09:17:53;2.23;;;1.40;;
4051;SDS011;2040;50.924;11.604;2022-08-03T09:20:21;2.63;;;1.87;;
4051;SDS011;2040;50.924;11.604;2022-08-03T09:22:53;7.50;;;1.43;;
4051;SDS011;2040;50.924;11.604;2022-08-03T09:25:19;2.60;;;1.70;;
4051;SDS011;2040;50.924;11.604;2022-08-03T09:28:05;3.70;;;1.70;;
4051;SDS011;2040;50.924;11.604;2022-08-03T09:30:31;3.60;;;1.70;;
4051;SDS011;2040;50.924;11.604;2022-08-03T09:33:00;1.73;;;1.20;;
4051;SDS011;2040;50.924;11.604;2022-08-03T09:35:30;1.97;;;1.80;;
4051;SDS011;2040;50.924;11.604;2022-08-03T09:38:12;1.70;;;1.43;;
4051;SDS011;2040;50.924;11.604;2022-08-03T09:40:42;2.13;;;1.80;;
4051;SDS011;2040;50.924;11.604;2022-08-03T09:43:09;2.00;;;1.50;;
4051;SDS011;2040;50.924;11.604;2022-08-03T09:45:39;2.30;;;1.50;;
4051;SDS011;2040;50.924;11.604;2022-08-03T09:48:24;2.00;;;1.73;;
4051;SDS011;2040;50.924;11.604;2022-08-03T09:50:53;2.63;;;1.90;;
4051;SDS011;2040;50.924;11.604;2022-08-03T09:53:20;3.17;;;2.30;;
4051;SDS011;2040;50.924;11.604;2022-08-03T09:55:50;2.20;;;1.70;;
4051;SDS011;2040;50.924;11.604;2022-08-03T09:58:16;2.00;;;1.80;;
4051;SDS011;2040;50.924;11.604;2022-08-03T10:00:57;1.60;;;1.50;;
4051;SDS011;2040;50.924;11.604;2022-08-03T10:03:29;3.47;;;1.80;;
4051;SDS011;2040;50.924;11.604;2022-08-03T10:05:56;4.30;;;1.70;;
4051;SDS011;2040;50.924;11.604;2022-08-03T10:08:21;15.87;;;2.13;;
4051;SDS011;2040;50.924;11.604;2022-08-03T10:10:49;5.47;;;1.80;;
4051;SDS011;2040;50.924;11.604;2022-08-03T10:13:18;1.93;;;1.70;;
4051;SDS011;2040;50.924;11.604;2022-08-03T10:15:45;1.27;;;1.17;;
4051;SDS011;2040;50.924;11.604;2022-08-03T10:18:11;3.50;;;1.33;;
4051;SDS011;2040;50.924;11.604;2022-08-03T10:20:39;2.47;;;1.80;;
4051;SDS011;2040;50.924;11.604;2022-08-03T10:23:22;1.93;;;1.73;;
4051;SDS011;2040;50.924;11.604;2022-08-03T10:25:51;4.80;;;1.50;;
4051;SDS011;2040;50.924;11.604;2022-08-03T10:28:21;1.60;;;1.50;;
4051;SDS011;2040;50.924;11.604;2022-08-03T10:30:50;3.23;;;1.60;;
4051;SDS011;2040;50.924;11.604;2022-08-03T10:33:20;3.70;;;2.03;;
4051;SDS011;2040;50.924;11.604;2022-08-03T10:35:49;2.13;;;1.70;;
4051;SDS011;2040;50.924;11.604;2022-08-03T10:38:19;2.30;;;2.10;;
4051;SDS011;2040;50.924;11.604;2022-08-03T10:40:58;4.23;;;1.70;;
4051;SDS011;2040;50.924;11.604;2022-08-03T10:43:26;2.30;;;1.70;;
4051;SDS011;2040;50.924;11.604;2022-08-03T10:45:57;1.70;;;1.60;;
4051;SDS011;2040;50.924;11.604;2022-08-03T10:48:24;2.63;;;1.87;;
4051;SDS011;2040;50.924;11.604;2022-08-03T10:50:51;2.03;;;1.70;;
4051;SDS011;2040;50.924;11.604;2022-08-03T10:53:32;2.03;;;1.57;;
4051;SDS011;2040;50.924;11.604;2022-08-03T10:56:02;3.30;;;1.60;;
4051;SDS011;2040;50.924;11.604;2022-08-03T10:58:48;4.77;;;1.80;;
4051;SDS011;2040;50.924;11.604;2022-08-03T11:01:15;2.50;;;2.00;;
4051;SDS011;2040;50.924;11.604;2022-08-03T11:06:17;2.00;;;1.80;;
4051;SDS011;2040;50.924;11.604;2022-08-03T11:08:44;1.70;;;1.60;;
4051;SDS011;2040;50.924;11.604;2022-08-03T11:13:59;1.87;;;1.77;;
4051;SDS011;2040;50.924;11.604;2022-08-03T11:16:33;1.57;;;1.47;;
4051;SDS011;2040;50.924;11.604;2022-08-03T11:19:22;2.27;;;1.83;;
4051;SDS011;2040;50.924;11.604;2022-08-03T11:22:06;5.10;;;1.73;;
4051;SDS011;2040;50.924;11.604;2022-08-03T11:29:52;2.03;;;1.80;;
4051;SDS011;2040;50.924;11.604;2022-08-03T11:35:08;2.67;;;1.87;;
4051;SDS011;2040;50.924;11.604;2022-08-03T11:40:37;1.70;;;1.33;;
4051;SDS011;2040;50.924;11.604;2022-08-03T11:46:01;6.63;;;1.77;;
4051;SDS011;2040;50.924;11.604;2022-08-03T11:48:39;2.60;;;1.77;;
4051;SDS011;2040;50.924;11.604;2022-08-03T11:53:44;2.80;;;1.70;;
4051;SDS011;2040;50.924;11.604;2022-08-03T11:56:11;3.70;;;2.20;;
4051;SDS011;2040;50.924;11.604;2022-08-03T11:58:44;3.45;;;1.83;;
4051;SDS011;2040;50.924;11.604;2022-08-03T12:01:14;1.67;;;1.57;;
4051;SDS011;2040;50.924;11.604;2022-08-03T12:03:40;1.95;;;1.70;;
4051;SDS011;2040;50.924;11.604;2022-08-03T12:06:10;1.38;;;1.20;;
4051;SDS011;2040;50.924;11.604;2022-08-03T12:08:39;2.00;;;1.90;;
4051;SDS011;2040;50.924;11.604;2022-08-03T12:11:07;3.13;;;1.70;;
4051;SDS011;2040;50.924;11.604;2022-08-03T12:16:06;2.20;;;2.00;;
4051;SDS011;2040;50.924;11.604;2022-08-03T12:18:33;6.30;;;1.73;;
4051;SDS011;2040;50.924;11.604;2022-08-03T12:21:03;2.75;;;1.75;;
4051;SDS011;2040;50.924;11.604;2022-08-03T12:23:31;2.20;;;1.90;;
4051;SDS011;2040;50.924;11.604;2022-08-03T12:26:00;3.00;;;1.90;;
4051;SDS011;2040;50.924;11.604;2022-08-03T12:28:27;1.83;;;1.60;;
4051;SDS011;2040;50.924;11.604;2022-08-03T12:30:53;1.73;;;1.58;;
4051;SDS011;2040;50.924;11.604;2022-08-03T12:33:24;1.75;;;1.45;;
4051;SDS011;2040;50.924;11.604;2022-08-03T12:36:07;5.82;;;1.48;;
4051;SDS011;2040;50.924;11.604;2022-08-03T12:38:35;1.95;;;1.50;;
4051;SDS011;2040;50.924;11.604;2022-08-03T12:41:08;1.85;;;1.75;;
4051;SDS011;2040;50.924;11.604;2022-08-03T12:43:49;4.60;;;2.20;;
4051;SDS011;2040;50.924;11.604;2022-08-03T12:46:16;2.53;;;1.77;;
4051;SDS011;2040;50.924;11.604;2022-08-03T12:51:28;2.25;;;1.83;;
4051;SDS011;2040;50.924;11.604;2022-08-03T12:53:55;1.90;;;1.80;;
4051;SDS011;2040;50.924;11.604;2022-08-03T12:56:22;1.80;;;1.70;;
4051;SDS011;2040;50.924;11.604;2022-08-03T12:58:47;2.00;;;1.75;;
4051;SDS011;2040;50.924;11.604;2022-08-03T13:01:14;2.63;;;1.58;;
4051;SDS011;2040;50.924;11.604;2022-08-03T13:03:41;1.80;;;1.70;;
4051;SDS011;2040;50.924;11.604;2022-08-03T13:06:14;2.85;;;1.50;;
4051;SDS011;2040;50.924;11.604;2022-08-03T13:09:00;3.97;;;1.50;;
4051;SDS011;2040;50.924;11.604;2022-08-03T13:11:28;2.20;;;1.70;;
4051;SDS011;2040;50.924;11.604;2022-08-03T13:13:54;1.83;;;1.70;;
4051;SDS011;2040;50.924;11.604;2022-08-03T13:16:20;7.97;;;1.83;;
4051;SDS011;2040;50.924;11.604;2022-08-03T13:18:47;1.60;;;1.50;;
4051;SDS011;2040;50.924;11.604;2022-08-03T13:21:14;1.70;;;1.60;;
4051;SDS011;2040;50.924;11.604;2022-08-03T13:23:40;3.05;;;1.58;;
4051;SDS011;2040;50.924;11.604;2022-08-03T13:26:06;1.77;;;1.67;;
4051;SDS011;2040;50.924;11.604;2022-08-03T13:28:32;1.50;;;1.17;;
4051;SDS011;2040;50.924;11.604;2022-08-03T13:30:58;2.53;;;1.90;;
4051;SDS011;2040;50.924;11.604;2022-08-03T13:33:25;2.30;;;2.10;;
4051;SDS011;2040;50.924;11.604;2022-08-03T13:35:52;4.60;;;1.60;;
4051;SDS011;2040;50.924;11.604;2022-08-03T13:38:17;2.53;;;1.42;;
4051;SDS011;2040;50.924;11.604;2022-08-03T13:40:43;3.22;;;1.60;;
4051;SDS011;2040;50.924;11.604;2022-08-03T13:43:08;1.88;;;1.73;;
4051;SDS011;2040;50.924;11.604;2022-08-03T13:45:34;2.35;;;1.90;;
4051;SDS011;2040;50.924;11.604;2022-08-03T13:48:00;4.85;;;2.13;;
4051;SDS011;2040;50.924;11.604;2022-08-03T13:50:25;1.77;;;1.67;;
4051;SDS011;2040;50.924;11.604;2022-08-03T13:52:51;1.98;;;1.60;;
4051;SDS011;2040;50.924;11.604;2022-08-03T13:55:17;2.65;;;1.60;;
4051;SDS011;2040;50.924;11.604;2022-08-03T13:57:42;5.80;;;1.50;;
4051;SDS011;2040;50.924;11.604;2022-08-03T14:00:08;1.52;;;1.42;;
4051;SDS011;2040;50.924;11.604;2022-08-03T14:02:34;1.98;;;1.73;;
4051;SDS011;2040;50.924;11.604;2022-08-03T14:05:00;2.05;;;1.60;;
4051;SDS011;2040;50.924;11.604;2022-08-03T14:07:25;2.45;;;1.60;;
4051;SDS011;2040;50.924;11.604;2022-08-03T14:09:51;3.65;;;1.60;;
4051;SDS011;2040;50.924;11.604;2022-08-03T14:12:16;1.45;;;1.35;;
4051;SDS011;2040;50.924;11.604;2022-08-03T14:14:42;1.60;;;1.50;;
4051;SDS011;2040;50.924;11.604;2022-08-03T14:17:07;1.42;;;1.33;;
4051;SDS011;2040;50.924;11.604;2022-08-03T14:19:33;3.30;;;1.50;;
4051;SDS011;2040;50.924;11.604;2022-08-03T14:21:58;1.80;;;1.67;;
4051;SDS011;2040;50.924;11.604;2022-08-03T14:24:24;1.70;;;1.60;;
4051;SDS011;2040;50.924;11.604;2022-08-03T14:26:49;2.85;;;1.80;;
4051;SDS011;2040;50.924;11.604;2022-08-03T14:29:15;1.40;;;1.30;;
4051;SDS011;2040;50.924;11.604;2022-08-03T14:31:40;3.50;;;1.40;;
4051;SDS011;2040;50.924;11.604;2022-08-03T14:34:06;3.38;;;1.55;;
4051;SDS011;2040;50.924;11.604;2022-08-03T14:36:31;2.13;;;1.90;;
4051;SDS011;2040;50.924;11.604;2022-08-03T14:38:57;1.65;;;1.55;;
4051;SDS011;2040;50.924;11.604;2022-08-03T14:41:23;1.35;;;1.25;;
4051;SDS011;2040;50.924;11.604;2022-08-03T14:43:48;1.73;;;1.45;;
4051;SDS011;2040;50.924;11.604;2022-08-03T14:46:14;4.38;;;1.77;;
4051;SDS011;2040;50.924;11.604;2022-08-03T14:48:39;3.17;;;1.55;;
4051;SDS011;2040;50.924;11.604;2022-08-03T14:51:05;2.00;;;1.80;;
4051;SDS011;2040;50.924;11.604;2022-08-03T14:53:30;8.88;;;1.60;;
4051;SDS011;2040;50.924;11.604;2022-08-03T14:55:57;3.97;;;1.50;;
4051;SDS011;2040;50.924;11.604;2022-08-03T14:58:23;5.63;;;1.55;;
4051;SDS011;2040;50.924;11.604;2022-08-03T15:00:51;1.55;;;1.30;;
4051;SDS011;2040;50.924;11.604;2022-08-03T15:03:18;3.17;;;1.58;;
4051;SDS011;2040;50.924;11.604;2022-08-03T15:05:46;5.93;;;1.85;;
4051;SDS011;2040;50.924;11.604;2022-08-03T15:08:13;1.47;;;1.37;;
4051;SDS011;2040;50.924;11.604;2022-08-03T15:10:38;3.17;;;1.58;;
4051;SDS011;2040;50.924;11.604;2022-08-03T15:13:04;3.85;;;1.70;;
4051;SDS011;2040;50.924;11.604;2022-08-03T15:15:29;6.68;;;1.70;;
4051;SDS011;2040;50.924;11.604;2022-08-03T15:17:55;1.60;;;1.42;;
4051;SDS011;2040;50.924;11.604;2022-08-03T15:20:20;2.72;;;1.42;;
4051;SDS011;2040;50.924;11.604;2022-08-03T15:22:46;8.38;;;1.52;;
4051;SDS011;2040;50.924;11.604;2022-08-03T15:25:12;3.13;;;1.50;;
4051;SDS011;2040;50.924;11.604;2022-08-03T15:27:37;3.13;;;1.65;;
4051;SDS011;2040;50.924;11.604;2022-08-03T15:30:03;1.88;;;1.58;;
4051;SDS011;2040;50.924;11.604;2022-08-03T15:32:30;2.85;;;1.50;;
4051;SDS011;2040;50.924;11.604;2022-08-03T15:34:57;4.55;;;1.70;;
4051;SDS011;2040;50.924;11.604;2022-08-03T15:37:24;1.58;;;1.48;;
4051;SDS011;2040;50.924;11.604;2022-08-03T15:39:50;3.53;;;1.58;;
4051;SDS011;2040;50.924;11.604;2022-08-03T15:42:15;2.55;;;1.80;;